CheckWX is a tool to help pilots better visualize weather data.  It is not intended as a substitute for an official pre-flight weather briefing.

06:19:18 UTC

KHUM TAF
Houma-Terrebonne Airport
Houma, Louisiana, USA
KHUM 310520Z 3106/0106 14010KT P6SM SCT025 BKN035 FM310900 20008KT P6SM VCSH SCT008 OVC040 FM311200 22010KT P6SM VCSH SCT015 OVC050 FM311400 23013KT P6SM SCT015 BKN025 FM311600 25015KT P6SM SCT020 BKN050 FM312100 30014KT P6SM SKC

Mar-31@
06:00 UTC

Mar-31 @ 06:00 UTC

Mar-31@
09:00 UTC

Mar-31 @ 09:00 UTC

TAF KHUM 310520Z 3106/0106 14010KT P6SM SCT025 BKN035
Wind
  • 140° at 10 KTS
Cloud Levels
  • Scattered at 2,500' AGL
  • Broken at 3,500' AGL

Mar-31@
09:00 UTC

Mar-31 @ 09:00 UTC

Mar-31@
12:00 UTC

Mar-31 @ 12:00 UTC

FM310900 20008KT P6SM VCSH SCT008 OVC040

From

From Standard forecast or significant change

Wind
  • 200° at 8 KTS
Conditions
Area Showers
Cloud Levels
  • Scattered at 800' AGL
  • Overcast at 4,000' AGL

Mar-31@
12:00 UTC

Mar-31 @ 12:00 UTC

Mar-31@
14:00 UTC

Mar-31 @ 14:00 UTC

FM311200 22010KT P6SM VCSH SCT015 OVC050

From

From Standard forecast or significant change

Wind
  • 220° at 10 KTS
Conditions
Area Showers
Cloud Levels
  • Scattered at 1,500' AGL
  • Overcast at 5,000' AGL

Mar-31@
14:00 UTC

Mar-31 @ 14:00 UTC

Mar-31@
16:00 UTC

Mar-31 @ 16:00 UTC

FM311400 23013KT P6SM SCT015 BKN025

From

From Standard forecast or significant change

Wind
  • 230° at 13 KTS
Cloud Levels
  • Scattered at 1,500' AGL
  • Broken at 2,500' AGL

Mar-31@
16:00 UTC

Mar-31 @ 16:00 UTC

Mar-31@
21:00 UTC

Mar-31 @ 21:00 UTC

FM311600 25015KT P6SM SCT020 BKN050

From

From Standard forecast or significant change

Wind
  • 250° at 15 KTS
Cloud Levels
  • Scattered at 2,000' AGL
  • Broken at 5,000' AGL

Mar-31@
21:00 UTC

Mar-31 @ 21:00 UTC

Apr-1@
06:00 UTC

Apr-1 @ 06:00 UTC

FM312100 30014KT P6SM SKC

From

From Standard forecast or significant change

Wind
  • 300° at 14 KTS
Cloud Levels
  • Clear skies